createdAt,value
2022-09-04T00:00:18.804Z,80.68
2022-09-04T00:03:15.572Z,80.66
2022-09-04T00:05:55.455Z,80.14
2022-09-04T00:08:31.419Z,81.28
2022-09-04T00:11:09.237Z,81.36
2022-09-04T00:14:00.133Z,81.03
2022-09-04T00:17:04.681Z,80.64
2022-09-04T00:19:32.033Z,80.86
2022-09-04T00:22:00.737Z,80.20
2022-09-04T00:24:36.967Z,80.88
2022-09-04T00:27:23.365Z,80.57
2022-09-04T00:30:11.450Z,79.90
2022-09-04T00:33:04.631Z,79.88
2022-09-04T00:35:36.797Z,80.54
2022-09-04T00:38:08.271Z,81.16
2022-09-04T00:41:01.635Z,81.05
2022-09-04T00:43:53.429Z,80.88
2022-09-04T00:46:26.831Z,81.09
2022-09-04T00:49:07.706Z,80.47
2022-09-04T00:52:11.211Z,80.76
2022-09-04T00:55:17.241Z,80.49
2022-09-04T00:57:49.961Z,80.58
2022-09-04T01:00:21.626Z,80.90
2022-09-04T01:03:23.698Z,80.07
2022-09-04T01:06:20.809Z,79.78
2022-09-04T01:09:05.143Z,79.41
2022-09-04T01:11:40.548Z,78.99
2022-09-04T01:14:18.847Z,79.52
2022-09-04T01:16:59.564Z,78.94
2022-09-04T01:19:29.658Z,78.81
2022-09-04T01:22:17.532Z,79.23
2022-09-04T01:25:05.763Z,80.56
2022-09-04T01:27:54.664Z,78.51
2022-09-04T01:30:22.519Z,78.66
2022-09-04T01:33:10.749Z,77.21
2022-09-04T01:36:08.676Z,78.33
2022-09-04T01:38:58.418Z,79.36
2022-09-04T01:41:38.219Z,78.62
2022-09-04T01:44:10.343Z,79.00
2022-09-04T01:46:47.679Z,79.68
2022-09-04T01:49:30.921Z,79.83
2022-09-04T01:51:57.710Z,80.41
2022-09-04T01:54:51.808Z,79.66
2022-09-04T01:57:37.156Z,79.92
2022-09-04T02:00:11.778Z,79.52
2022-09-04T02:02:56.559Z,79.38
2022-09-04T02:05:48.331Z,80.00
2022-09-04T02:08:41.267Z,80.22
2022-09-04T02:11:26.573Z,79.28
2022-09-04T02:14:17.673Z,80.73
2022-09-04T02:17:10.892Z,79.28
2022-09-04T02:19:44.830Z,80.59
2022-09-04T02:22:36.514Z,80.50
2022-09-04T02:25:30.319Z,81.13
2022-09-04T02:28:06.381Z,80.87
2022-09-04T02:30:58.337Z,80.59
2022-09-04T02:33:42.828Z,80.62
2022-09-04T02:36:43.041Z,81.38
2022-09-04T02:39:23.431Z,81.59
2022-09-04T02:42:05.472Z,81.55
2022-09-04T02:45:09.866Z,81.52
2022-09-04T02:47:55.266Z,81.75
2022-09-04T02:51:13.900Z,81.24
2022-09-04T02:54:08.542Z,81.68
2022-09-04T02:56:38.269Z,81.95
2022-09-04T02:59:23.989Z,82.43
2022-09-04T03:02:00.875Z,82.80
2022-09-04T03:04:49.796Z,82.92
2022-09-04T03:07:33.514Z,83.02
2022-09-04T03:10:11.739Z,83.10
2022-09-04T03:12:42.196Z,82.30
2022-09-04T03:15:27.853Z,82.70
2022-09-04T03:18:06.726Z,83.04
2022-09-04T03:20:44.802Z,83.63
2022-09-04T03:23:33.865Z,83.52
2022-09-04T03:26:03.689Z,83.44
2022-09-04T03:28:39.180Z,83.40
2022-09-04T03:31:45.758Z,83.85
2022-09-04T03:34:33.856Z,83.70
2022-09-04T03:37:12.139Z,83.66
2022-09-04T03:39:49.572Z,83.89
2022-09-04T03:42:54.483Z,83.79
2022-09-04T03:45:39.333Z,83.96
2022-09-04T03:48:18.932Z,83.84
2022-09-04T03:51:01.426Z,83.88
2022-09-04T03:53:57.388Z,83.45
2022-09-04T03:56:32.795Z,83.71
2022-09-04T03:59:12.307Z,83.12
2022-09-04T04:01:49.705Z,82.58
2022-09-04T04:04:35.236Z,83.24
2022-09-04T04:07:35.418Z,83.11
2022-09-04T04:10:33.411Z,83.09
2022-09-04T04:13:19.300Z,83.32
2022-09-04T04:15:55.770Z,82.84
2022-09-04T04:18:28.727Z,82.93
2022-09-04T04:21:13.862Z,83.06
2022-09-04T04:24:17.173Z,82.50
2022-09-04T04:26:57.504Z,83.17
2022-09-04T04:29:39.681Z,82.81
2022-09-04T04:32:25.486Z,83.14
2022-09-04T04:35:03.372Z,82.74
2022-09-04T04:37:50.251Z,82.98
2022-09-04T04:41:00.018Z,83.71
2022-09-04T04:43:50.059Z,83.07
2022-09-04T04:46:38.929Z,83.44
2022-09-04T04:49:28.759Z,82.94
2022-09-04T04:52:08.611Z,82.53
2022-09-04T04:54:42.260Z,82.75
2022-09-04T04:57:16.259Z,82.49
2022-09-04T05:00:04.966Z,82.65
2022-09-04T05:03:00.696Z,83.59
2022-09-04T05:06:07.075Z,82.91
2022-09-04T05:08:43.193Z,83.88
2022-09-04T05:11:37.985Z,83.75
2022-09-04T05:14:19.735Z,83.60
2022-09-04T05:17:01.140Z,83.61
2022-09-04T05:20:02.349Z,82.94
2022-09-04T05:22:38.731Z,83.33
2022-09-04T05:25:16.266Z,84.46
2022-09-04T05:27:43.083Z,84.21
2022-09-04T05:30:14.173Z,84.51
2022-09-04T05:32:53.462Z,84.31
2022-09-04T05:35:35.587Z,84.81
2022-09-04T05:38:11.084Z,84.94
2022-09-04T05:40:56.293Z,84.52
2022-09-04T05:43:38.760Z,85.02
2022-09-04T05:46:36.142Z,85.95
2022-09-04T05:49:35.548Z,84.91
2022-09-04T05:52:09.682Z,85.61
2022-09-04T05:54:55.406Z,85.92
2022-09-04T05:57:31.402Z,85.97
2022-09-04T06:00:07.000Z,85.90
2022-09-04T06:02:49.771Z,85.71
2022-09-04T06:05:45.273Z,85.45
2022-09-04T06:08:31.880Z,85.41
2022-09-04T06:11:32.723Z,85.70
2022-09-04T06:14:14.884Z,85.81
2022-09-04T06:16:56.801Z,85.91
2022-09-04T06:20:00.885Z,86.17
2022-09-04T06:22:50.877Z,86.20
2022-09-04T06:25:37.287Z,86.69
2022-09-04T06:28:26.890Z,86.52
2022-09-04T06:31:02.924Z,86.46
2022-09-04T06:33:59.043Z,86.86
2022-09-04T06:37:00.081Z,86.83
2022-09-04T06:40:05.291Z,86.25
2022-09-04T06:42:49.291Z,86.18
2022-09-04T06:45:35.351Z,86.94
2022-09-04T06:48:20.904Z,86.69
2022-09-04T06:50:57.048Z,87.51
2022-09-04T06:53:37.583Z,87.77
2022-09-04T06:56:48.808Z,87.45
2022-09-04T06:59:42.312Z,87.02
2022-09-04T07:02:31.570Z,87.39
2022-09-04T07:05:29.421Z,87.59
2022-09-04T07:08:09.033Z,87.35
2022-09-04T07:11:03.939Z,87.36
2022-09-04T07:13:49.112Z,86.70
2022-09-04T07:16:22.043Z,87.12
2022-09-04T07:19:10.725Z,87.45
2022-09-04T07:22:17.865Z,87.15
2022-09-04T07:24:47.624Z,87.14
2022-09-04T07:27:25.161Z,86.67
2022-09-04T07:30:02.251Z,87.02
2022-09-04T07:32:34.420Z,87.00
2022-09-04T07:35:20.194Z,86.85
2022-09-04T07:38:15.657Z,86.34
2022-09-04T07:40:46.787Z,86.50
2022-09-04T07:43:34.927Z,86.57
2022-09-04T07:46:33.373Z,86.66
2022-09-04T07:49:10.890Z,86.36
2022-09-04T07:51:45.359Z,86.18
2022-09-04T07:54:55.313Z,86.18
2022-09-04T07:57:49.392Z,86.12
2022-09-04T08:00:18.762Z,85.88
2022-09-04T08:02:58.610Z,85.67
2022-09-04T08:05:50.505Z,85.82
2022-09-04T08:08:23.501Z,85.17
2022-09-04T08:11:09.354Z,85.07
2022-09-04T08:14:04.291Z,85.17
2022-09-04T08:16:40.945Z,84.76
2022-09-04T08:19:33.816Z,84.94
2022-09-04T08:22:03.068Z,84.59
2022-09-04T08:24:45.115Z,84.64
2022-09-04T08:27:17.635Z,84.25
2022-09-04T08:29:44.422Z,84.20
2022-09-04T08:32:28.560Z,84.44
2022-09-04T08:35:36.071Z,84.20
2022-09-04T08:38:38.327Z,83.92
2022-09-04T08:41:42.788Z,83.81
2022-09-04T08:44:15.891Z,83.39
2022-09-04T08:46:49.358Z,82.93
2022-09-04T08:49:24.374Z,82.35
2022-09-04T08:52:07.066Z,82.53
2022-09-04T08:54:55.092Z,82.42
2022-09-04T08:57:52.232Z,81.76
2022-09-04T09:00:21.364Z,81.80
2022-09-04T09:03:32.890Z,81.45
2022-09-04T09:05:59.682Z,81.40
2022-09-04T09:09:05.115Z,79.30
2022-09-04T09:11:34.569Z,80.13
2022-09-04T09:14:21.379Z,79.77
2022-09-04T09:17:05.846Z,79.25
2022-09-04T09:20:10.995Z,78.19
2022-09-04T09:22:43.800Z,76.26
2022-09-04T09:25:34.356Z,77.99
2022-09-04T09:28:34.655Z,77.53
2022-09-04T09:31:22.647Z,77.53
2022-09-04T09:34:05.423Z,76.07
2022-09-04T09:37:02.322Z,75.57
2022-09-04T09:40:06.885Z,76.41
2022-09-04T09:43:02.075Z,74.53
2022-09-04T09:46:08.124Z,73.28
2022-09-04T09:49:14.989Z,73.90
2022-09-04T09:51:44.971Z,72.36
2022-09-04T09:54:30.970Z,71.74
2022-09-04T09:57:33.562Z,72.44
2022-09-04T10:00:09.536Z,73.28
2022-09-04T10:02:38.183Z,72.43
2022-09-04T10:05:32.067Z,71.77
2022-09-04T10:08:46.933Z,70.71
2022-09-04T10:11:36.747Z,69.22
2022-09-04T10:14:40.718Z,69.87
2022-09-04T10:17:47.650Z,70.02
2022-09-04T10:20:46.144Z,67.82
2022-09-04T10:23:37.469Z,69.46
2022-09-04T10:26:29.350Z,70.20
2022-09-04T10:29:29.010Z,70.24
2022-09-04T10:32:36.539Z,70.45
2022-09-04T10:35:16.471Z,69.09
2022-09-04T10:38:04.789Z,64.71
2022-09-04T10:41:17.255Z,65.01
2022-09-04T10:44:02.318Z,67.05
2022-09-04T10:47:13.872Z,64.55
2022-09-04T10:49:40.757Z,65.27
2022-09-04T10:52:51.472Z,66.75
2022-09-04T10:55:33.047Z,64.92
2022-09-04T10:58:26.314Z,62.53
2022-09-04T11:01:18.569Z,64.11
2022-09-04T11:04:23.174Z,64.59
2022-09-04T11:06:57.647Z,63.30
2022-09-04T11:10:11.531Z,59.03
2022-09-04T11:13:09.230Z,59.21
2022-09-04T11:16:05.478Z,57.20
2022-09-04T11:18:57.362Z,58.84
2022-09-04T11:21:51.476Z,55.62
2022-09-04T11:24:41.394Z,55.90
2022-09-04T11:27:47.660Z,55.22
2022-09-04T11:30:18.257Z,54.67
2022-09-04T11:32:58.828Z,53.85
2022-09-04T11:35:29.674Z,56.05
2022-09-04T11:38:40.001Z,57.53
2022-09-04T11:41:29.022Z,53.97
2022-09-04T11:44:18.858Z,53.33
2022-09-04T11:47:03.994Z,56.30
2022-09-04T11:49:57.092Z,51.15
2022-09-04T11:53:02.472Z,49.39
2022-09-04T11:55:57.361Z,50.02
2022-09-04T11:59:01.519Z,52.50
2022-09-04T12:01:31.021Z,50.53
2022-09-04T12:04:23.165Z,50.28
2022-09-04T12:07:20.905Z,48.53
2022-09-04T12:10:02.695Z,50.26
2022-09-04T12:12:35.605Z,49.43
2022-09-04T12:15:17.929Z,46.85
2022-09-04T12:18:02.276Z,47.50
2022-09-04T12:21:01.759Z,49.41
2022-09-04T12:23:42.488Z,49.05
2022-09-04T12:26:33.852Z,48.05
2022-09-04T12:29:24.019Z,47.51
2022-09-04T12:32:11.642Z,48.50
2022-09-04T12:35:00.224Z,46.24
2022-09-04T12:37:51.063Z,46.95
2022-09-04T12:40:42.778Z,46.71
2022-09-04T12:43:30.738Z,46.41
2022-09-04T12:46:10.707Z,45.91
2022-09-04T12:49:18.606Z,46.92
2022-09-04T12:52:00.349Z,45.52
2022-09-04T12:54:43.429Z,43.68
2022-09-04T12:57:46.594Z,45.33
2022-09-04T13:00:17.964Z,43.46
2022-09-04T13:03:22.562Z,42.78
2022-09-04T13:06:06.665Z,44.72
2022-09-04T13:08:36.672Z,44.24
2022-09-04T13:11:21.824Z,44.53
2022-09-04T13:14:09.014Z,44.53
2022-09-04T13:16:54.874Z,43.64
2022-09-04T13:19:52.387Z,43.75
2022-09-04T13:22:28.895Z,43.29
2022-09-04T13:25:08.452Z,43.78
2022-09-04T13:27:41.281Z,43.98
2022-09-04T13:30:21.657Z,44.75
2022-09-04T13:33:11.250Z,45.39
2022-09-04T13:36:23.957Z,42.04
2022-09-04T13:39:18.525Z,41.94
2022-09-04T13:42:09.199Z,43.48
2022-09-04T13:45:02.128Z,40.60
2022-09-04T13:47:41.610Z,41.36
2022-09-04T13:50:17.222Z,42.82
2022-09-04T13:53:15.644Z,43.60
2022-09-04T13:55:54.206Z,42.39
2022-09-04T13:58:28.124Z,42.71
2022-09-04T14:00:59.323Z,43.77
2022-09-04T14:03:39.636Z,42.41
2022-09-04T14:06:10.054Z,42.65
2022-09-04T14:08:39.648Z,44.12
2022-09-04T14:11:33.895Z,42.78
2022-09-04T14:14:13.555Z,40.99
2022-09-04T14:16:41.647Z,40.11
2022-09-04T14:19:49.208Z,40.30
2022-09-04T14:22:52.201Z,38.81
2022-09-04T14:28:22.353Z,40.06
2022-09-04T14:30:29.330Z,40.09
2022-09-04T14:31:00.787Z,39.77
2022-09-04T14:33:49.932Z,39.69
2022-09-04T14:36:35.474Z,37.60
2022-09-04T14:39:09.519Z,40.45
2022-09-04T14:41:54.367Z,40.04
2022-09-04T14:44:35.692Z,41.22
2022-09-04T14:47:17.243Z,41.14
2022-09-04T14:49:48.208Z,39.42
2022-09-04T14:52:21.569Z,38.94
2022-09-04T14:54:54.110Z,38.95
2022-09-04T14:57:36.118Z,37.87
2022-09-04T15:00:20.738Z,37.98
2022-09-04T15:03:17.072Z,38.54
2022-09-04T15:05:57.601Z,41.05
2022-09-04T15:08:34.702Z,38.83
2022-09-04T15:11:08.940Z,40.00
2022-09-04T15:13:53.172Z,40.89
2022-09-04T15:16:44.248Z,38.97
2022-09-04T15:19:32.887Z,37.96
2022-09-04T15:22:12.661Z,39.13
2022-09-04T15:25:00.845Z,39.72
2022-09-04T15:27:49.867Z,39.28
2022-09-04T15:30:33.551Z,39.53
2022-09-04T15:33:06.766Z,40.47
2022-09-04T15:35:34.976Z,39.37
2022-09-04T15:38:20.920Z,40.90
2022-09-04T15:41:26.448Z,40.32
2022-09-04T15:44:08.762Z,40.68
2022-09-04T15:46:38.740Z,39.56
2022-09-04T15:49:31.428Z,39.51
2022-09-04T15:52:24.322Z,38.36
2022-09-04T15:55:09.510Z,40.36
2022-09-04T15:57:59.732Z,39.65
2022-09-04T16:00:27.368Z,37.83
2022-09-04T16:03:16.034Z,37.30
2022-09-04T16:05:59.188Z,38.46
2022-09-04T16:08:42.681Z,37.97
2022-09-04T16:11:28.866Z,38.67
2022-09-04T16:14:11.502Z,38.19
2022-09-04T16:16:53.397Z,39.37
2022-09-04T16:19:23.730Z,39.88
2022-09-04T16:21:50.511Z,40.56
2022-09-04T16:24:21.291Z,41.15
2022-09-04T16:26:53.467Z,41.06
2022-09-04T16:29:28.341Z,41.06
2022-09-04T16:31:57.613Z,41.56
2022-09-04T16:34:25.702Z,41.04
2022-09-04T16:37:09.528Z,41.55
2022-09-04T16:39:43.507Z,40.29
2022-09-04T16:42:32.291Z,41.21
2022-09-04T16:45:13.781Z,41.41
2022-09-04T16:47:49.982Z,41.08
2022-09-04T16:50:22.240Z,41.15
2022-09-04T16:53:13.652Z,40.90
2022-09-04T16:55:47.022Z,41.31
2022-09-04T16:58:29.898Z,41.14
2022-09-04T17:01:13.693Z,41.61
2022-09-04T17:04:12.420Z,41.37
2022-09-04T17:06:57.441Z,41.71
2022-09-04T17:09:52.024Z,42.05
2022-09-04T17:12:56.966Z,43.06
2022-09-04T17:15:29.442Z,42.85
2022-09-04T17:17:57.118Z,42.15
2022-09-04T17:21:09.668Z,42.83
2022-09-04T17:29:02.818Z,42.57
2022-09-04T17:29:13.983Z,43.32
2022-09-04T17:29:44.620Z,42.32
2022-09-04T17:34:31.456Z,43.30
2022-09-04T17:40:36.253Z,44.01
2022-09-04T17:40:53.106Z,43.98
2022-09-04T17:41:57.051Z,43.91
2022-09-04T17:44:57.418Z,44.04
2022-09-04T17:47:37.979Z,43.90
2022-09-04T17:50:16.334Z,44.14
2022-09-04T17:53:10.421Z,44.26
2022-09-04T17:55:48.076Z,44.21
2022-09-04T17:58:22.051Z,44.14
2022-09-04T18:01:14.190Z,43.99
2022-09-04T18:04:21.829Z,44.35
2022-09-04T18:07:33.529Z,44.49
2022-09-04T18:10:31.090Z,44.43
2022-09-04T18:13:08.907Z,44.50
2022-09-04T18:16:00.532Z,44.71
2022-09-04T18:18:37.300Z,45.19
2022-09-04T18:21:17.267Z,45.17
2022-09-04T18:24:04.144Z,45.28
2022-09-04T18:26:41.169Z,45.35
2022-09-04T18:29:30.483Z,45.47
2022-09-04T18:37:09.677Z,45.49
2022-09-04T18:37:17.417Z,45.52
2022-09-04T18:38:14.872Z,45.68
2022-09-04T18:45:38.975Z,46.05
2022-09-04T18:50:24.956Z,45.92
2022-09-04T18:50:32.526Z,46.17
2022-09-04T18:50:46.628Z,46.09
2022-09-04T18:52:15.584Z,46.23
2022-09-04T18:54:48.194Z,46.37
2022-09-04T18:57:36.250Z,46.60
2022-09-04T19:00:10.125Z,46.65
2022-09-04T19:02:53.430Z,46.76
2022-09-04T19:05:21.900Z,47.10
2022-09-04T19:07:55.964Z,47.13
2022-09-04T19:10:28.755Z,47.50
2022-09-04T19:13:01.798Z,47.59
2022-09-04T19:17:10.901Z,47.52
2022-09-04T19:19:54.949Z,47.73
2022-09-04T19:22:33.209Z,47.86
2022-09-04T19:25:08.151Z,48.09
2022-09-04T19:27:49.964Z,48.24
2022-09-04T19:30:23.972Z,48.18
2022-09-04T19:33:10.680Z,48.32
2022-09-04T19:35:53.523Z,48.41
2022-09-04T19:45:30.807Z,48.49
2022-09-04T19:46:12.819Z,48.30
2022-09-04T19:46:19.716Z,48.21
2022-09-04T19:47:59.561Z,48.69
2022-09-04T19:53:24.585Z,48.55
2022-09-04T19:53:48.462Z,49.13
2022-09-04T19:56:29.258Z,49.46
2022-09-04T19:59:19.099Z,49.46
2022-09-04T20:02:03.211Z,49.46
2022-09-04T20:04:42.525Z,49.57
2022-09-04T20:07:19.514Z,49.68
2022-09-04T20:09:50.272Z,49.46
2022-09-04T20:12:40.949Z,49.45
2022-09-04T20:15:13.005Z,49.69
2022-09-04T20:17:40.692Z,49.79
2022-09-04T20:20:29.295Z,49.83
2022-09-04T20:23:02.289Z,49.83
2022-09-04T20:26:03.564Z,49.86
2022-09-04T20:28:36.342Z,49.74
2022-09-04T20:31:35.321Z,50.31
2022-09-04T20:34:12.550Z,49.99
2022-09-04T20:36:48.786Z,50.50
2022-09-04T20:39:22.961Z,50.39
2022-09-04T20:42:00.526Z,50.34
2022-09-04T20:46:46.934Z,50.15
2022-09-04T20:52:43.516Z,49.83
2022-09-04T20:52:52.614Z,50.21
2022-09-04T20:53:50.097Z,50.22
2022-09-04T21:00:39.284Z,50.23
2022-09-04T21:03:10.209Z,50.02
2022-09-04T21:03:18.655Z,49.98
2022-09-04T21:06:07.975Z,50.12
2022-09-04T21:09:01.108Z,49.88
2022-09-04T21:11:39.092Z,49.68
2022-09-04T21:14:45.939Z,49.83
2022-09-04T21:17:54.715Z,50.02
2022-09-04T21:20:59.297Z,49.96
2022-09-04T21:23:46.277Z,49.94
2022-09-04T21:26:46.543Z,49.84
2022-09-04T21:29:28.494Z,50.06
2022-09-04T21:32:48.890Z,49.74
2022-09-04T21:35:20.230Z,50.04
2022-09-04T21:38:18.168Z,49.77
2022-09-04T21:40:51.637Z,49.74
2022-09-04T21:43:53.115Z,49.95
2022-09-04T21:46:42.117Z,49.77
2022-09-04T21:49:27.828Z,49.92
2022-09-04T21:52:24.531Z,49.54
2022-09-04T21:59:29.951Z,50.11
2022-09-04T22:02:28.230Z,50.13
2022-09-04T22:02:48.432Z,50.15
2022-09-04T22:04:49.172Z,50.24
2022-09-04T22:11:34.508Z,50.17
2022-09-04T22:13:44.180Z,50.52
2022-09-04T22:13:50.380Z,50.85
2022-09-04T22:16:34.439Z,50.82
2022-09-04T22:19:29.443Z,50.69
2022-09-04T22:22:16.005Z,50.84
2022-09-04T22:25:00.179Z,50.90
2022-09-04T22:28:13.063Z,51.29
2022-09-04T22:31:04.602Z,51.18
2022-09-04T22:34:15.953Z,51.06
2022-09-04T22:37:09.761Z,51.34
2022-09-04T22:39:39.618Z,51.38
2022-09-04T22:42:25.154Z,51.30
2022-09-04T22:45:07.207Z,51.76
2022-09-04T22:48:05.856Z,51.52
2022-09-04T22:50:56.442Z,51.79
2022-09-04T22:53:46.823Z,51.82
2022-09-04T22:56:33.894Z,51.96
2022-09-04T22:59:27.448Z,51.95
2022-09-04T23:02:48.138Z,51.99
2022-09-04T23:05:52.799Z,52.16
2022-09-04T23:13:50.971Z,52.40
2022-09-04T23:13:58.274Z,52.60
2022-09-04T23:15:08.358Z,52.57
2022-09-04T23:17:52.872Z,52.41
2022-09-04T23:26:31.722Z,52.83
2022-09-04T23:26:44.648Z,52.69
2022-09-04T23:27:11.805Z,52.76
2022-09-04T23:30:18.193Z,53.00
2022-09-04T23:33:27.953Z,53.05
2022-09-04T23:36:09.432Z,53.75
2022-09-04T23:39:04.189Z,53.45
2022-09-04T23:41:52.805Z,53.89
2022-09-04T23:44:39.043Z,53.80
2022-09-04T23:47:47.928Z,54.18
2022-09-04T23:50:43.513Z,54.07
2022-09-04T23:53:29.317Z,54.56
2022-09-04T23:56:27.145Z,54.73
2022-09-04T23:59:29.645Z,55.13
